Time;durP1;ratioP1;P1;durP2;ratioP2;P2;SDS_P1;SDS_P2;PMS_P1;PMS_P2;Temp;Humidity;BMP_temperature;BMP_pressure;BME280_temperature;BME280_humidity;BME280_pressure;Samples;Min_cycle;Max_cycle;Signal;HPM_P1;HPM_P2
2022/09/21 00:00:33;;;;;;;2.13;0.80;;;9.00;75.50;;;;;;4971356;28;20459;-58
2022/09/21 00:02:59;;;;;;;2.07;0.80;;;9.00;75.10;;;;;;4996359;28;20208;-58
2022/09/21 00:05:25;;;;;;;1.07;1.00;;;9.00;75.30;;;;;;4975813;28;20467;-59
2022/09/21 00:07:51;;;;;;;0.87;0.87;;;9.00;75.60;;;;;;4992788;28;20192;-59
2022/09/21 00:10:19;;;;;;;1.53;1.13;;;9.10;75.50;;;;;;4988465;28;20197;-59
2022/09/21 00:12:47;;;;;;;2.43;1.20;;;9.20;75.30;;;;;;4968407;28;20181;-60
2022/09/21 00:15:14;;;;;;;2.00;1.20;;;9.10;75.20;;;;;;5011556;28;20213;-59
2022/09/21 00:17:39;;;;;;;1.10;1.00;;;9.10;75.00;;;;;;4976766;28;20459;-59
2022/09/21 00:20:05;;;;;;;1.70;0.87;;;9.00;75.20;;;;;;4981944;28;20423;-59
2022/09/21 00:22:32;;;;;;;1.83;0.90;;;9.00;74.90;;;;;;4977125;28;20189;-59
2022/09/21 00:24:58;;;;;;;1.20;0.97;;;9.00;75.10;;;;;;5016951;28;20441;-59
2022/09/21 00:27:28;;;;;;;1.37;0.70;;;9.00;75.30;;;;;;4994736;28;20449;-58
2022/09/21 00:30:02;;;;;;;1.10;0.87;;;9.00;75.00;;;;;;5040428;28;20228;-59
2022/09/21 00:32:30;;;;;;;0.80;0.70;;;9.00;75.10;;;;;;4980811;28;20531;-59
2022/09/21 00:34:57;;;;;;;0.70;0.70;;;8.90;75.10;;;;;;5009078;28;20480;-59
2022/09/21 00:37:23;;;;;;;1.37;0.93;;;8.90;75.60;;;;;;5009170;28;20531;-59
2022/09/21 00:39:49;;;;;;;2.03;1.20;;;8.80;75.30;;;;;;5012269;28;20419;-59
2022/09/21 00:42:19;;;;;;;1.83;0.90;;;8.80;76.00;;;;;;5024114;28;20432;-59
2022/09/21 00:44:45;;;;;;;1.83;1.20;;;8.80;75.50;;;;;;5007704;28;20490;-58
2022/09/21 00:47:15;;;;;;;1.10;0.80;;;8.70;75.90;;;;;;5003338;28;20822;-59
2022/09/21 00:49:43;;;;;;;2.77;1.40;;;8.70;75.90;;;;;;4986550;28;20185;-59
2022/09/21 00:52:13;;;;;;;2.67;1.10;;;8.70;75.70;;;;;;4988578;28;20455;-59
2022/09/21 00:54:48;;;;;;;1.20;1.00;;;8.80;76.10;;;;;;5011305;28;20436;-59
2022/09/21 00:57:15;;;;;;;1.70;1.33;;;8.80;75.90;;;;;;4981412;28;20441;-59
2022/09/21 00:59:43;;;;;;;2.23;1.23;;;8.60;76.00;;;;;;5007117;28;20421;-59
2022/09/21 01:02:10;;;;;;;1.20;1.10;;;8.60;76.10;;;;;;5012072;28;20443;-59
2022/09/21 01:04:37;;;;;;;1.03;0.93;;;8.70;76.10;;;;;;4974558;28;20421;-59
2022/09/21 01:07:07;;;;;;;2.03;0.90;;;8.60;75.80;;;;;;4989407;28;20464;-59
2022/09/21 01:09:33;;;;;;;0.90;0.77;;;8.60;75.80;;;;;;4981780;28;20428;-59
2022/09/21 01:12:17;;;;;;;4.23;0.90;;;8.60;75.50;;;;;;4974635;28;20425;-59
2022/09/21 01:14:56;;;;;;;1.40;1.10;;;8.50;76.20;;;;;;5023933;28;20439;-59
2022/09/21 01:17:48;;;;;;;0.80;0.80;;;8.60;76.30;;;;;;5017352;28;20435;-59
2022/09/21 01:20:25;;;;;;;1.63;0.90;;;8.50;75.90;;;;;;4991563;28;20177;-59
2022/09/21 01:22:54;;;;;;;0.87;0.87;;;8.60;76.00;;;;;;5009684;28;20467;-58
2022/09/21 01:25:46;;;;;;;4.13;1.20;;;8.50;76.10;;;;;;5019379;28;20435;-58
2022/09/21 01:28:47;;;;;;;1.27;1.10;;;8.40;76.50;;;;;;5009975;28;20498;-58
2022/09/21 01:31:19;;;;;;;1.00;0.87;;;8.50;76.50;;;;;;4978339;28;20448;-58
2022/09/21 01:33:54;;;;;;;2.03;1.30;;;8.40;76.80;;;;;;4977780;28;20479;-59
2022/09/21 01:36:27;;;;;;;3.07;0.93;;;8.40;76.80;;;;;;4979538;28;20440;-59
2022/09/21 01:39:05;;;;;;;1.90;0.90;;;8.40;76.90;;;;;;4988515;28;20432;-59
2022/09/21 01:41:31;;;;;;;1.43;1.20;;;8.40;77.00;;;;;;4992240;28;20518;-59
2022/09/21 01:44:07;;;;;;;1.13;1.03;;;8.30;77.20;;;;;;4961085;28;20443;-58
2022/09/21 01:46:33;;;;;;;2.33;1.10;;;8.30;77.30;;;;;;4985320;28;20467;-58
2022/09/21 01:49:04;;;;;;;2.33;0.90;;;8.20;77.60;;;;;;4984172;28;20436;-58
2022/09/21 01:51:32;;;;;;;1.70;1.00;;;8.30;77.40;;;;;;4993088;28;20524;-59
2022/09/21 01:54:11;;;;;;;0.83;0.83;;;8.30;77.20;;;;;;4990939;28;20467;-59
2022/09/21 01:56:53;;;;;;;2.83;1.13;;;8.30;77.10;;;;;;5016798;28;20436;-58
2022/09/21 01:59:29;;;;;;;3.50;0.90;;;8.20;77.20;;;;;;5019629;28;20427;-58
2022/09/21 02:02:07;;;;;;;0.93;0.80;;;8.20;77.20;;;;;;5011749;28;20527;-58
2022/09/21 02:04:34;;;;;;;4.50;1.07;;;8.20;77.40;;;;;;4982253;28;20466;-58
2022/09/21 02:07:00;;;;;;;1.17;0.90;;;8.30;77.30;;;;;;4983099;28;20542;-58
2022/09/21 02:09:26;;;;;;;0.50;0.50;;;8.30;77.60;;;;;;4990688;28;20448;-58
2022/09/21 02:11:52;;;;;;;1.30;0.83;;;8.30;77.00;;;;;;4988442;28;20449;-58
2022/09/21 02:14:23;;;;;;;1.80;0.90;;;8.30;76.70;;;;;;5037464;28;20476;-58
2022/09/21 02:17:14;;;;;;;1.67;0.73;;;8.30;76.80;;;;;;5010390;28;20440;-58
2022/09/21 02:20:14;;;;;;;3.60;1.00;;;8.10;77.50;;;;;;4986203;28;20455;-58
2022/09/21 02:23:14;;;;;;;2.33;1.23;;;8.00;77.60;;;;;;5016909;28;20435;-58
2022/09/21 02:26:12;;;;;;;1.30;0.93;;;7.90;78.20;;;;;;4977020;28;20468;-59
2022/09/21 02:28:47;;;;;;;1.10;1.00;;;8.00;77.80;;;;;;4980734;28;20425;-59
2022/09/21 02:31:50;;;;;;;0.97;0.90;;;8.00;77.80;;;;;;5015743;28;20428;-59
2022/09/21 02:34:19;;;;;;;1.33;0.83;;;8.00;77.80;;;;;;5018565;28;20478;-59
2022/09/21 02:36:50;;;;;;;0.90;0.90;;;8.00;77.90;;;;;;5017932;28;20425;-59
2022/09/21 02:39:37;;;;;;;2.20;1.13;;;8.20;77.50;;;;;;5014965;28;20416;-59
2022/09/21 02:42:15;;;;;;;3.00;1.00;;;8.10;77.70;;;;;;4988976;28;20478;-59
2022/09/21 02:45:11;;;;;;;1.50;0.93;;;8.10;77.70;;;;;;4994972;28;20493;-58
2022/09/21 02:48:02;;;;;;;5.83;1.30;;;8.10;77.60;;;;;;5008778;28;20432;-59
2022/09/21 02:50:50;;;;;;;1.67;1.03;;;8.10;77.70;;;;;;4982311;28;20490;-59
2022/09/21 02:53:29;;;;;;;1.70;1.07;;;7.90;78.00;;;;;;4984565;28;20428;-59
2022/09/21 02:55:58;;;;;;;2.10;1.27;;;7.90;78.10;;;;;;4990912;28;20428;-59
2022/09/21 02:58:26;;;;;;;1.87;1.20;;;8.00;77.90;;;;;;4979366;28;20556;-59
2022/09/21 03:00:55;;;;;;;1.77;1.23;;;7.90;77.90;;;;;;4985978;28;20415;-59
2022/09/21 03:03:23;;;;;;;4.77;1.20;;;7.80;78.30;;;;;;5024290;28;20491;-59
2022/09/21 03:05:51;;;;;;;1.67;1.13;;;7.80;78.20;;;;;;4991724;28;20585;-59
2022/09/21 03:08:18;;;;;;;2.00;1.13;;;7.80;78.30;;;;;;4988782;28;20424;-59
2022/09/21 03:10:45;;;;;;;1.23;1.13;;;7.90;78.00;;;;;;4994517;28;21842;-59
2022/09/21 03:13:11;;;;;;;3.30;1.40;;;7.80;78.10;;;;;;4978959;28;20460;-58
2022/09/21 03:15:39;;;;;;;1.63;0.90;;;7.80;77.90;;;;;;4987627;28;20447;-59
2022/09/21 03:18:08;;;;;;;1.67;1.00;;;7.70;78.10;;;;;;5013877;28;20453;-59
2022/09/21 03:20:35;;;;;;;1.20;1.10;;;7.70;78.20;;;;;;5016132;28;20479;-59
2022/09/21 03:23:00;;;;;;;1.97;0.93;;;7.70;78.10;;;;;;5020115;28;20429;-59
2022/09/21 03:25:29;;;;;;;1.27;0.70;;;7.70;78.30;;;;;;5001031;28;20539;-59
2022/09/21 03:27:56;;;;;;;0.87;0.80;;;7.70;78.00;;;;;;4975441;28;20181;-59
2022/09/21 03:30:23;;;;;;;1.70;0.90;;;7.60;78.40;;;;;;4995685;28;20443;-59
2022/09/21 03:32:50;;;;;;;1.07;0.97;;;7.70;78.70;;;;;;5002108;28;20440;-60
2022/09/21 03:35:20;;;;;;;1.03;0.73;;;7.70;78.10;;;;;;5021062;28;20428;-60
2022/09/21 03:37:47;;;;;;;0.97;0.83;;;7.70;77.80;;;;;;5000242;28;20428;-59
2022/09/21 03:40:13;;;;;;;0.83;0.83;;;7.70;77.80;;;;;;5019426;28;20429;-59
2022/09/21 03:42:42;;;;;;;1.33;0.80;;;7.80;77.60;;;;;;4997707;28;20436;-59
2022/09/21 03:45:10;;;;;;;1.17;0.90;;;7.70;77.40;;;;;;5014400;28;20440;-59
2022/09/21 03:47:37;;;;;;;1.20;1.10;;;7.60;77.70;;;;;;4994193;28;20432;-59
2022/09/21 03:50:03;;;;;;;0.87;0.87;;;7.50;77.80;;;;;;5024614;28;20474;-59
2022/09/21 03:52:30;;;;;;;1.10;0.90;;;7.50;78.30;;;;;;4990350;28;20432;-59
2022/09/21 03:54:55;;;;;;;1.00;0.90;;;7.60;77.90;;;;;;5010659;28;20432;-59
2022/09/21 03:57:21;;;;;;;1.37;1.00;;;7.60;77.80;;;;;;4986890;28;20522;-59
2022/09/21 03:59:47;;;;;;;2.47;1.13;;;7.50;77.90;;;;;;5000082;28;20197;-59
2022/09/21 04:02:14;;;;;;;1.70;1.60;;;7.50;78.00;;;;;;4995825;28;20231;-59
2022/09/21 04:04:40;;;;;;;2.10;1.57;;;7.50;78.30;;;;;;4981954;28;20424;-59
2022/09/21 04:07:06;;;;;;;1.07;0.97;;;7.60;78.10;;;;;;4979661;28;20476;-59
2022/09/21 04:09:31;;;;;;;0.93;0.87;;;7.60;78.10;;;;;;5016654;28;20192;-59
2022/09/21 04:11:57;;;;;;;1.33;0.93;;;7.60;77.90;;;;;;4995021;28;20207;-59
2022/09/21 04:14:23;;;;;;;1.33;1.23;;;7.70;77.60;;;;;;5013805;28;20584;-59
2022/09/21 04:16:50;;;;;;;1.63;0.87;;;7.50;77.80;;;;;;5001177;28;20188;-60
2022/09/21 04:19:21;;;;;;;0.83;0.80;;;7.40;78.40;;;;;;5013640;28;20287;-60
2022/09/21 04:21:46;;;;;;;1.60;0.93;;;7.30;78.30;;;;;;4989758;28;20479;-60
2022/09/21 04:24:12;;;;;;;1.10;1.00;;;7.20;78.30;;;;;;4974558;28;20467;-59
2022/09/21 04:26:39;;;;;;;1.50;0.90;;;7.20;78.20;;;;;;5034393;28;20271;-59
2022/09/21 04:29:05;;;;;;;1.37;1.27;;;7.20;78.30;;;;;;4993982;28;20209;-59
2022/09/21 04:31:32;;;;;;;1.10;1.00;;;7.20;78.80;;;;;;5015478;28;20439;-59
2022/09/21 04:33:58;;;;;;;1.67;0.97;;;7.10;78.30;;;;;;5010632;28;20248;-59
2022/09/21 04:36:27;;;;;;;1.57;1.10;;;7.00;78.80;;;;;;5000548;28;20433;-60
2022/09/21 04:38:52;;;;;;;1.80;1.00;;;6.90;79.20;;;;;;4995934;28;20193;-59
2022/09/21 04:41:18;;;;;;;2.00;0.70;;;6.90;79.20;;;;;;5006664;28;20447;-60
2022/09/21 04:43:45;;;;;;;3.13;1.30;;;7.00;78.90;;;;;;5025266;28;20211;-59
2022/09/21 04:46:14;;;;;;;2.57;0.93;;;6.90;79.00;;;;;;5007985;28;20216;-59
2022/09/21 04:48:40;;;;;;;1.30;0.73;;;6.90;79.10;;;;;;4993817;28;20456;-59
2022/09/21 04:51:06;;;;;;;1.27;1.00;;;6.90;79.00;;;;;;4993167;28;20444;-59
2022/09/21 04:53:36;;;;;;;2.30;0.90;;;7.00;79.30;;;;;;4979821;28;20443;-59
2022/09/21 04:56:03;;;;;;;1.60;0.87;;;7.10;78.80;;;;;;4990303;28;20436;-59
2022/09/21 04:58:29;;;;;;;1.40;1.17;;;7.00;79.00;;;;;;5001001;28;20436;-59
2022/09/21 05:00:55;;;;;;;4.60;1.20;;;6.90;78.90;;;;;;4984597;28;20467;-59
2022/09/21 05:03:22;;;;;;;1.83;1.63;;;6.80;79.00;;;;;;4996991;28;20255;-59
2022/09/21 05:05:53;;;;;;;1.53;1.07;;;6.80;79.30;;;;;;5028507;28;20471;-59
2022/09/21 05:10:01;;;;;;;1.20;1.00;;;6.90;79.30;;;;;;5019365;28;20514;-58
2022/09/21 05:11:11;;;;;;;0.60;0.60;;;6.80;79.40;;;;;;4983706;28;20431;-58
2022/09/21 05:13:40;;;;;;;1.17;0.93;;;6.90;79.50;;;;;;5017266;28;20487;-59
2022/09/21 05:16:06;;;;;;;0.87;0.83;;;7.10;79.10;;;;;;5014173;28;20440;-59
2022/09/21 05:18:32;;;;;;;1.60;1.23;;;7.10;79.00;;;;;;5016210;28;20415;-59
2022/09/21 05:21:00;;;;;;;1.63;1.10;;;7.10;79.20;;;;;;5028836;28;20467;-58
2022/09/21 05:23:28;;;;;;;1.53;1.30;;;7.00;79.00;;;;;;5015279;28;20213;-59
2022/09/21 05:25:55;;;;;;;2.47;1.60;;;6.90;79.20;;;;;;5006342;28;20610;-59
2022/09/21 05:28:21;;;;;;;5.27;3.63;;;6.90;79.50;;;;;;4989924;28;20448;-59
2022/09/21 05:30:58;;;;;;;2.97;2.50;;;6.70;79.70;;;;;;4980285;28;20428;-59
2022/09/21 05:33:28;;;;;;;4.43;2.90;;;6.70;80.40;;;;;;4991554;28;20563;-59
2022/09/21 05:36:20;;;;;;;4.87;2.20;;;6.80;80.20;;;;;;5020014;28;20526;-59
2022/09/21 05:38:46;;;;;;;3.53;2.60;;;6.90;80.10;;;;;;5009318;28;20442;-59
2022/09/21 05:41:12;;;;;;;4.20;2.73;;;7.00;79.80;;;;;;4977502;28;20452;-59
2022/09/21 05:43:38;;;;;;;2.40;2.20;;;7.00;79.90;;;;;;4958915;28;20225;-59
2022/09/21 05:46:33;;;;;;;2.63;2.03;;;7.10;79.80;;;;;;5010180;28;20509;-59
2022/09/21 05:49:04;;;;;;;2.10;1.90;;;7.20;79.40;;;;;;5006568;28;20208;-59
2022/09/21 05:51:41;;;;;;;2.87;2.07;;;7.20;79.20;;;;;;5009549;28;20424;-59
2022/09/21 05:54:12;;;;;;;3.60;2.30;;;7.10;79.20;;;;;;4974788;28;20428;-59
2022/09/21 05:56:41;;;;;;;2.17;1.97;;;7.10;79.20;;;;;;5014294;28;20450;-60
2022/09/21 05:59:40;;;;;;;2.30;1.90;;;7.10;79.60;;;;;;4988316;28;20440;-59
2022/09/21 06:02:30;;;;;;;4.70;1.87;;;7.20;79.60;;;;;;5020670;28;20449;-59
2022/09/21 06:04:58;;;;;;;2.87;1.77;;;7.20;79.60;;;;;;4995031;28;20526;-59
2022/09/21 06:07:24;;;;;;;2.00;1.77;;;7.20;79.70;;;;;;5014587;28;20529;-59
2022/09/21 06:09:50;;;;;;;2.57;1.70;;;7.20;79.40;;;;;;5030187;28;20534;-59
2022/09/21 06:12:16;;;;;;;2.63;1.70;;;7.20;79.70;;;;;;4989421;28;20244;-60
2022/09/21 06:14:43;;;;;;;3.97;2.20;;;7.20;79.90;;;;;;5008422;28;20451;-59
2022/09/21 06:17:08;;;;;;;6.03;1.97;;;7.30;80.10;;;;;;5002406;28;20443;-59
2022/09/21 06:19:34;;;;;;;4.70;2.30;;;7.20;80.00;;;;;;4990714;28;20891;-59
2022/09/21 06:22:00;;;;;;;2.10;1.70;;;7.30;80.10;;;;;;4996891;28;20189;-59
2022/09/21 06:24:25;;;;;;;1.70;1.60;;;7.30;80.00;;;;;;5012600;28;20203;-59
2022/09/21 06:26:51;;;;;;;1.50;1.40;;;7.30;80.30;;;;;;4995025;28;20225;-59
2022/09/21 06:29:22;;;;;;;2.97;1.60;;;7.30;80.30;;;;;;4991561;28;20227;-59
2022/09/21 06:31:49;;;;;;;3.23;2.00;;;7.30;80.20;;;;;;4968145;28;20243;-59
2022/09/21 06:34:15;;;;;;;1.50;1.30;;;7.40;80.10;;;;;;5008493;28;20474;-59
2022/09/21 06:36:40;;;;;;;1.97;1.40;;;7.40;80.00;;;;;;5004931;28;20507;-59
2022/09/21 06:39:06;;;;;;;3.93;1.83;;;7.50;80.30;;;;;;5007003;28;20201;-59
2022/09/21 06:41:31;;;;;;;6.03;2.10;;;7.50;80.10;;;;;;4982490;28;20193;-59
2022/09/21 06:43:57;;;;;;;3.27;1.60;;;7.50;80.30;;;;;;5011903;28;20201;-59
2022/09/21 06:46:23;;;;;;;2.77;1.63;;;7.50;80.70;;;;;;5029781;28;20295;-59
2022/09/21 06:48:49;;;;;;;4.50;1.97;;;7.50;80.90;;;;;;4993072;28;20196;-59
2022/09/21 06:51:15;;;;;;;3.40;2.20;;;7.70;80.60;;;;;;4997108;28;20326;-59
2022/09/21 06:53:40;;;;;;;5.17;2.30;;;7.70;80.50;;;;;;5025319;28;20537;-59
2022/09/21 06:56:08;;;;;;;3.37;2.53;;;7.80;80.60;;;;;;4987929;28;20255;-59
2022/09/21 06:58:35;;;;;;;5.70;2.03;;;7.90;80.40;;;;;;4990549;28;20192;-59
2022/09/21 07:01:08;;;;;;;4.00;2.10;;;7.90;80.30;;;;;;5006651;28;20437;-59
2022/09/21 07:03:35;;;;;;;3.77;1.70;;;8.00;80.50;;;;;;4974009;28;20520;-59
2022/09/21 07:06:01;;;;;;;2.50;1.80;;;8.00;80.20;;;;;;5013143;28;20530;-59
2022/09/21 07:08:26;;;;;;;2.10;1.97;;;8.10;80.30;;;;;;4999078;28;20436;-59
2022/09/21 07:10:52;;;;;;;2.80;1.87;;;8.20;80.40;;;;;;4989982;28;20232;-60
2022/09/21 07:13:18;;;;;;;2.00;1.40;;;8.30;80.50;;;;;;4994719;28;20192;-59
2022/09/21 07:15:44;;;;;;;3.47;1.40;;;8.30;80.30;;;;;;4994220;28;20188;-59
2022/09/21 07:18:11;;;;;;;2.17;1.60;;;8.30;80.10;;;;;;4998581;28;20208;-59
2022/09/21 07:20:36;;;;;;;2.43;1.93;;;8.50;80.10;;;;;;4985383;28;20219;-59
2022/09/21 07:23:09;;;;;;;2.50;1.40;;;8.50;79.90;;;;;;5007006;28;20464;-59
2022/09/21 07:25:35;;;;;;;4.17;1.70;;;8.60;79.40;;;;;;4980931;28;20195;-59
2022/09/21 07:28:01;;;;;;;2.43;1.40;;;8.70;79.30;;;;;;5011868;28;20436;-59
2022/09/21 07:30:27;;;;;;;2.60;1.33;;;8.80;79.40;;;;;;4998346;28;20189;-59
2022/09/21 07:32:52;;;;;;;2.90;1.50;;;8.80;79.40;;;;;;4992779;28;20196;-59
2022/09/21 07:35:19;;;;;;;2.50;1.57;;;8.90;78.80;;;;;;5006854;28;20241;-59
2022/09/21 07:37:44;;;;;;;2.33;1.27;;;9.00;78.30;;;;;;5007875;28;20193;-60
2022/09/21 07:40:10;;;;;;;1.83;1.60;;;9.00;77.30;;;;;;5008609;28;20440;-60
2022/09/21 07:42:36;;;;;;;3.70;2.47;;;9.10;77.30;;;;;;4992609;28;20192;-60
2022/09/21 07:45:01;;;;;;;3.63;2.70;;;9.20;77.00;;;;;;5005493;28;20220;-60
2022/09/21 07:47:27;;;;;;;3.27;2.80;;;9.20;76.80;;;;;;5007333;28;20279;-60
2022/09/21 07:49:53;;;;;;;4.30;3.47;;;9.30;76.70;;;;;;4990875;28;20189;-60
2022/09/21 07:52:19;;;;;;;2.40;2.13;;;9.30;76.60;;;;;;5005143;28;20280;-60
2022/09/21 07:54:44;;;;;;;1.97;1.57;;;9.30;76.60;;;;;;4995570;28;20195;-60
2022/09/21 07:59:57;;;;;;;2.43;1.53;;;9.60;74.20;;;;;;4984829;28;20200;-60
2022/09/21 08:02:24;;;;;;;2.57;2.00;;;9.70;74.70;;;;;;5013612;28;20436;-60
2022/09/21 08:04:49;;;;;;;3.40;1.97;;;9.70;74.10;;;;;;5022733;28;20524;-60
2022/09/21 08:07:15;;;;;;;1.77;1.40;;;9.80;74.10;;;;;;5014073;28;20558;-60
2022/09/21 08:09:41;;;;;;;2.97;1.73;;;9.90;73.90;;;;;;5006515;28;20199;-60
2022/09/21 08:12:07;;;;;;;2.67;1.00;;;10.00;72.20;;;;;;4995290;28;20193;-60
2022/09/21 08:14:34;;;;;;;1.90;0.97;;;10.10;72.60;;;;;;5004861;28;20187;-60
2022/09/21 08:17:00;;;;;;;2.33;1.00;;;10.20;69.40;;;;;;4982936;28;20495;-60
2022/09/21 08:19:26;;;;;;;2.10;0.73;;;10.30;68.90;;;;;;4988848;28;20201;-60
2022/09/21 08:21:52;;;;;;;2.77;1.00;;;10.40;69.70;;;;;;5021710;28;20210;-60
2022/09/21 08:24:19;;;;;;;1.83;0.97;;;10.50;68.80;;;;;;5008874;28;20200;-60
2022/09/21 08:26:45;;;;;;;1.00;0.80;;;10.70;67.20;;;;;;4998954;28;20207;-60
2022/09/21 08:29:13;;;;;;;0.90;0.87;;;10.80;66.10;;;;;;5011154;28;20263;-60
2022/09/21 08:31:39;;;;;;;1.13;1.00;;;10.90;67.60;;;;;;5011034;28;20196;-60
2022/09/21 08:34:04;;;;;;;0.90;0.80;;;11.00;66.10;;;;;;5034172;28;20236;-60
2022/09/21 08:36:30;;;;;;;0.60;0.60;;;11.10;65.30;;;;;;4998783;28;20193;-60
2022/09/21 08:38:56;;;;;;;0.80;0.60;;;11.20;62.30;;;;;;5026091;28;20188;-60
2022/09/21 08:41:40;;;;;;;1.43;0.70;;;11.30;62.60;;;;;;5025118;28;20204;-60
2022/09/21 08:44:27;;;;;;;0.67;0.60;;;11.50;62.30;;;;;;5023525;28;20200;-60
2022/09/21 08:47:32;;;;;;;0.80;0.80;;;11.60;62.00;;;;;;5025450;28;20227;-60
2022/09/21 08:50:00;;;;;;;1.87;0.80;;;11.80;60.20;;;;;;4991745;28;20220;-60
2022/09/21 08:52:25;;;;;;;0.60;0.60;;;11.80;62.10;;;;;;4996527;28;20193;-61
2022/09/21 08:54:58;;;;;;;1.33;0.60;;;11.80;59.20;;;;;;5013337;28;20192;-60
2022/09/21 08:57:33;;;;;;;0.80;0.80;;;11.90;58.80;;;;;;5010493;28;20192;-60
2022/09/21 09:00:00;;;;;;;1.00;0.70;;;11.90;61.00;;;;;;4966794;28;20207;-60
2022/09/21 09:02:34;;;;;;;0.60;0.60;;;11.90;60.90;;;;;;5017291;28;20197;-61
2022/09/21 09:05:22;;;;;;;0.50;0.50;;;11.80;58.70;;;;;;5026598;28;20298;-60
2022/09/21 09:08:18;;;;;;;5.37;0.87;;;11.90;60.40;;;;;;5028819;28;20199;-60
2022/09/21 09:11:02;;;;;;;0.97;0.70;;;11.90;59.00;;;;;;5026241;28;20189;-60
2022/09/21 09:13:56;;;;;;;0.93;0.70;;;12.10;60.10;;;;;;5008280;28;20192;-59
2022/09/21 09:16:32;;;;;;;0.90;0.67;;;12.20;58.90;;;;;;5010341;28;20212;-60
2022/09/21 09:19:19;;;;;;;0.97;0.67;;;12.30;57.70;;;;;;4984999;28;20207;-60
2022/09/21 09:21:45;;;;;;;0.50;0.50;;;12.70;58.50;;;;;;5021862;28;20196;-60
2022/09/21 09:24:30;;;;;;;0.80;0.70;;;12.80;59.00;;;;;;5020000;28;20279;-60
2022/09/21 09:27:00;;;;;;;0.80;0.70;;;12.90;59.30;;;;;;4977196;28;20208;-60
2022/09/21 09:29:40;;;;;;;0.73;0.50;;;13.10;57.80;;;;;;5026552;28;20208;-60
2022/09/21 09:32:15;;;;;;;0.60;0.60;;;13.20;58.60;;;;;;4978803;28;20185;-60
2022/09/21 09:35:15;;;;;;;0.50;0.50;;;13.30;58.90;;;;;;5007938;28;20228;-60
2022/09/21 09:37:42;;;;;;;2.13;0.70;;;13.30;59.20;;;;;;5018000;28;20192;-60
2022/09/21 09:40:11;;;;;;;1.30;0.70;;;13.20;54.30;;;;;;5027056;28;20271;-60
2022/09/21 09:42:37;;;;;;;0.50;0.50;;;13.20;53.60;;;;;;5016797;28;20181;-60
2022/09/21 09:45:49;;;;;;;1.13;0.70;;;13.30;54.00;;;;;;4976756;28;20252;-60
2022/09/21 09:48:55;;;;;;;1.03;0.60;;;13.30;55.00;;;;;;5042300;28;20191;-59
2022/09/21 09:51:20;;;;;;;0.60;0.60;;;13.30;56.30;;;;;;5048391;28;20224;-60
2022/09/21 09:53:46;;;;;;;1.50;0.60;;;13.30;55.30;;;;;;5000573;28;20197;-60
2022/09/21 09:56:13;;;;;;;0.50;0.50;;;13.30;53.60;;;;;;5010862;28;20678;-60
2022/09/21 09:58:42;;;;;;;1.53;0.73;;;13.50;53.40;;;;;;5000384;28;20205;-61
2022/09/21 10:01:08;;;;;;;0.97;0.60;;;13.50;53.70;;;;;;5010205;28;20182;-61
2022/09/21 10:03:35;;;;;;;1.27;1.10;;;13.60;54.60;;;;;;5001511;28;20196;-60
2022/09/21 10:06:00;;;;;;;0.90;0.80;;;13.60;55.10;;;;;;5025362;28;20213;-59
2022/09/21 10:08:26;;;;;;;1.10;1.00;;;13.70;53.90;;;;;;5006692;28;20188;-59
2022/09/21 10:10:52;;;;;;;0.93;0.77;;;13.80;54.30;;;;;;5024054;28;20549;-59
2022/09/21 10:13:37;;;;;;;1.00;0.83;;;13.80;52.90;;;;;;5011477;28;20189;-59
2022/09/21 10:16:13;;;;;;;1.53;1.10;;;14.00;54.00;;;;;;4991181;28;20235;-59
2022/09/21 10:18:45;;;;;;;1.27;1.10;;;14.00;54.20;;;;;;5021782;28;20196;-59
2022/09/21 10:21:26;;;;;;;1.00;1.00;;;14.20;55.00;;;;;;4986804;28;20196;-59
2022/09/21 10:24:05;;;;;;;1.17;1.07;;;14.40;55.30;;;;;;4977089;28;20185;-59
2022/09/21 10:26:35;;;;;;;1.87;1.77;;;14.60;52.90;;;;;;4985574;28;20209;-59
2022/09/21 10:29:15;;;;;;;0.53;0.50;;;14.70;51.90;;;;;;5014084;28;20201;-59
2022/09/21 10:31:52;;;;;;;0.70;0.70;;;14.70;50.80;;;;;;5010421;28;20184;-59
2022/09/21 10:34:18;;;;;;;0.63;0.63;;;14.60;50.00;;;;;;4986799;28;20291;-59
2022/09/21 10:36:50;;;;;;;1.70;0.70;;;14.60;51.40;;;;;;5003173;28;20279;-59
2022/09/21 10:39:23;;;;;;;0.63;0.50;;;14.60;49.00;;;;;;5018264;28;20192;-59
2022/09/21 10:41:55;;;;;;;1.13;0.77;;;14.50;49.20;;;;;;5015633;28;20222;-59
2022/09/21 10:44:25;;;;;;;1.03;0.60;;;14.50;49.60;;;;;;5005028;28;20261;-59
2022/09/21 10:46:51;;;;;;;0.50;0.50;;;14.60;51.20;;;;;;5020138;28;20201;-59
2022/09/21 10:49:24;;;;;;;0.57;0.50;;;14.60;50.00;;;;;;4976859;28;20200;-59
2022/09/21 10:51:53;;;;;;;0.30;0.30;;;14.70;49.40;;;;;;5024439;28;20260;-59
2022/09/21 10:54:30;;;;;;;0.60;0.60;;;14.80;47.00;;;;;;4979955;28;20288;-59
2022/09/21 10:57:02;;;;;;;0.90;0.60;;;14.80;47.20;;;;;;4977307;28;20231;-59
2022/09/21 10:59:31;;;;;;;1.77;0.70;;;14.80;48.50;;;;;;4983068;28;20185;-59
2022/09/21 11:01:58;;;;;;;0.50;0.50;;;14.70;49.50;;;;;;4985906;28;20198;-59
2022/09/21 11:04:33;;;;;;;0.50;0.50;;;14.70;47.60;;;;;;5029639;28;20196;-59
2022/09/21 11:07:25;;;;;;;0.60;0.60;;;14.80;48.70;;;;;;4985396;28;20203;-59
2022/09/21 11:10:24;;;;;;;1.33;0.60;;;14.80;49.80;;;;;;5013423;28;20185;-59
2022/09/21 11:13:08;;;;;;;0.50;0.50;;;15.00;46.30;;;;;;4991940;28;20200;-59
2022/09/21 11:15:44;;;;;;;1.10;1.00;;;15.00;49.10;;;;;;5011507;28;20180;-59
2022/09/21 11:18:38;;;;;;;0.57;0.53;;;15.10;49.70;;;;;;4992428;28;20195;-60
2022/09/21 11:21:35;;;;;;;0.50;0.50;;;15.10;50.60;;;;;;4985796;28;20196;-60
2022/09/21 11:24:35;;;;;;;0.80;0.50;;;15.30;49.50;;;;;;5009221;28;20212;-60
2022/09/21 11:27:17;;;;;;;0.70;0.70;;;15.30;48.20;;;;;;5021655;28;20221;-60
2022/09/21 11:30:00;;;;;;;1.47;1.00;;;15.30;48.70;;;;;;4973905;28;20269;-59
2022/09/21 11:33:01;;;;;;;1.90;1.40;;;15.30;50.50;;;;;;5007504;28;20192;-60
2022/09/21 11:35:57;;;;;;;1.87;1.40;;;15.30;50.60;;;;;;5013059;28;20237;-61
2022/09/21 11:38:26;;;;;;;1.07;0.80;;;15.30;52.10;;;;;;5012951;28;20220;-60
2022/09/21 11:41:20;;;;;;;1.93;0.90;;;15.30;51.80;;;;;;5021056;28;20278;-60
2022/09/21 11:44:27;;;;;;;0.90;0.50;;;15.30;52.00;;;;;;5015045;28;20220;-60
2022/09/21 11:47:12;;;;;;;0.93;0.53;;;15.40;49.20;;;;;;5010942;28;20209;-61
2022/09/21 11:49:40;;;;;;;0.60;0.60;;;15.30;49.10;;;;;;4991194;28;20378;-61
2022/09/21 11:52:56;;;;;;;1.50;0.50;;;15.40;50.50;;;;;;5014168;28;20177;-61
2022/09/21 11:55:43;;;;;;;0.77;0.40;;;15.50;49.10;;;;;;5027544;28;20296;-59
2022/09/21 11:58:26;;;;;;;3.57;2.33;;;15.50;48.90;;;;;;5026757;28;20175;-60
2022/09/21 12:01:04;;;;;;;2.00;1.70;;;15.60;47.50;;;;;;4994283;28;20197;-60
2022/09/21 12:03:48;;;;;;;1.73;1.43;;;15.70;49.20;;;;;;5015563;28;20220;-60
2022/09/21 12:06:24;;;;;;;0.87;0.30;;;15.80;47.30;;;;;;5017951;28;20212;-61
2022/09/21 12:09:35;;;;;;;0.73;0.70;;;15.80;45.20;;;;;;5019438;28;20266;-61
2022/09/21 12:12:04;;;;;;;1.80;0.33;;;15.90;47.50;;;;;;5004665;28;20182;-61
2022/09/21 12:14:32;;;;;;;0.73;0.60;;;16.00;45.50;;;;;;5022163;28;20185;-60
2022/09/21 12:16:57;;;;;;;2.67;2.03;;;16.00;46.40;;;;;;5023145;28;20214;-60
2022/09/21 12:19:47;;;;;;;2.87;2.17;;;16.10;44.60;;;;;;5008790;28;20745;-61
2022/09/21 12:22:30;;;;;;;2.10;0.60;;;16.00;43.80;;;;;;4982000;28;20212;-60
2022/09/21 12:25:05;;;;;;;2.63;2.03;;;15.90;45.20;;;;;;5022921;28;20181;-60
2022/09/21 12:27:38;;;;;;;6.03;5.13;;;16.00;45.00;;;;;;4973321;28;20220;-60
2022/09/21 12:30:22;;;;;;;3.10;2.80;;;16.00;44.50;;;;;;5015256;28;20180;-60
2022/09/21 12:32:52;;;;;;;2.63;1.30;;;16.20;46.30;;;;;;5003211;28;20197;-59
2022/09/21 12:35:24;;;;;;;0.77;0.77;;;16.40;45.70;;;;;;4974098;28;20323;-60
2022/09/21 12:38:08;;;;;;;0.50;0.50;;;17.00;45.00;;;;;;4974776;28;20192;-59
2022/09/21 12:40:51;;;;;;;1.17;0.40;;;17.50;44.50;;;;;;4978538;28;20176;-59
2022/09/21 12:43:38;;;;;;;1.93;1.00;;;18.40;42.70;;;;;;4988404;28;20205;-59
2022/09/21 12:46:11;;;;;;;1.40;1.03;;;19.10;41.90;;;;;;5009415;28;20287;-60
2022/09/21 12:48:38;;;;;;;3.50;3.17;;;19.90;40.00;;;;;;4985574;28;20177;-60
2022/09/21 12:51:15;;;;;;;0.60;0.60;;;20.70;39.50;;;;;;4973793;28;20244;-60
2022/09/21 12:53:48;;;;;;;0.40;0.40;;;20.60;37.30;;;;;;4973808;28;20196;-60
2022/09/21 12:56:25;;;;;;;11.27;6.83;;;20.10;37.40;;;;;;4987615;28;20204;-60
2022/09/21 12:59:15;;;;;;;5.73;3.63;;;19.70;37.30;;;;;;4972709;28;20189;-60
2022/09/21 13:01:47;;;;;;;1.63;1.10;;;19.30;37.50;;;;;;4975188;28;20189;-59
2022/09/21 13:04:25;;;;;;;2.67;1.97;;;18.80;38.90;;;;;;5013225;28;20193;-60
2022/09/21 13:06:51;;;;;;;0.87;0.80;;;18.80;39.50;;;;;;5016013;28;20295;-59
2022/09/21 13:09:19;;;;;;;5.53;3.97;;;19.30;39.30;;;;;;4993706;28;20366;-59
2022/09/21 13:11:55;;;;;;;1.63;1.10;;;19.80;37.90;;;;;;4995397;28;20184;-59
2022/09/21 13:14:26;;;;;;;0.50;0.50;;;20.20;37.30;;;;;;5009994;28;20271;-60
2022/09/21 13:17:01;;;;;;;0.93;0.27;;;21.00;35.70;;;;;;4976283;28;20188;-61
2022/09/21 13:19:31;;;;;;;0.40;0.40;;;21.50;35.20;;;;;;4979322;28;20191;-60
2022/09/21 13:22:21;;;;;;;0.50;0.40;;;22.30;34.20;;;;;;5008428;28;20236;-60
2022/09/21 13:25:28;;;;;;;0.97;0.40;;;22.60;32.90;;;;;;4977019;28;20189;-60